sensor_id;sensor_type;location;lat;lon;timestamp;temperature;humidity
52799;DHT22;38667;42.872;74.622;2023-02-17T00:01:57;3.00;84.70
52799;DHT22;38667;42.872;74.622;2023-02-17T00:04:23;2.90;82.50
52799;DHT22;38667;42.872;74.622;2023-02-17T00:06:49;3.00;82.90
52799;DHT22;38667;42.872;74.622;2023-02-17T00:09:16;3.10;83.30
52799;DHT22;38667;42.872;74.622;2023-02-17T00:11:43;3.20;79.70
52799;DHT22;38667;42.872;74.622;2023-02-17T00:14:12;3.20;79.50
52799;DHT22;38667;42.872;74.622;2023-02-17T00:16:39;3.20;78.60
52799;DHT22;38667;42.872;74.622;2023-02-17T00:19:05;3.20;79.20
52799;DHT22;38667;42.872;74.622;2023-02-17T00:21:31;3.20;79.70
52799;DHT22;38667;42.872;74.622;2023-02-17T00:23:58;3.20;79.50
52799;DHT22;38667;42.872;74.622;2023-02-17T00:26:24;3.20;77.60
52799;DHT22;38667;42.872;74.622;2023-02-17T00:28:50;3.20;78.40
52799;DHT22;38667;42.872;74.622;2023-02-17T00:31:21;3.30;79.30
52799;DHT22;38667;42.872;74.622;2023-02-17T00:33:47;3.30;78.80
52799;DHT22;38667;42.872;74.622;2023-02-17T00:36:16;3.30;79.00
52799;DHT22;38667;42.872;74.622;2023-02-17T00:38:43;3.30;80.00
52799;DHT22;38667;42.872;74.622;2023-02-17T00:41:09;3.20;80.70
52799;DHT22;38667;42.872;74.622;2023-02-17T00:43:35;3.20;79.80
52799;DHT22;38667;42.872;74.622;2023-02-17T00:46:01;3.20;79.90
52799;DHT22;38667;42.872;74.622;2023-02-17T00:48:30;3.30;79.90
52799;DHT22;38667;42.872;74.622;2023-02-17T00:50:56;3.30;79.20
52799;DHT22;38667;42.872;74.622;2023-02-17T00:53:23;3.30;79.60
52799;DHT22;38667;42.872;74.622;2023-02-17T00:55:49;3.20;80.00
52799;DHT22;38667;42.872;74.622;2023-02-17T00:58:16;3.10;81.10
52799;DHT22;38667;42.872;74.622;2023-02-17T01:00:42;3.10;82.10
52799;DHT22;38667;42.872;74.622;2023-02-17T01:03:08;3.00;82.90
52799;DHT22;38667;42.872;74.622;2023-02-17T01:05:41;2.90;83.40
52799;DHT22;38667;42.872;74.622;2023-02-17T01:08:08;2.80;84.40
52799;DHT22;38667;42.872;74.622;2023-02-17T01:10:36;2.70;84.80
52799;DHT22;38667;42.872;74.622;2023-02-17T01:13:02;2.70;85.50
52799;DHT22;38667;42.872;74.622;2023-02-17T01:15:29;2.60;85.40
52799;DHT22;38667;42.872;74.622;2023-02-17T01:17:55;2.50;85.80
52799;DHT22;38667;42.872;74.622;2023-02-17T01:20:21;2.50;86.20
52799;DHT22;38667;42.872;74.622;2023-02-17T01:22:49;2.40;86.40
52799;DHT22;38667;42.872;74.622;2023-02-17T01:25:15;2.40;86.90
52799;DHT22;38667;42.872;74.622;2023-02-17T01:27:42;2.30;86.90
52799;DHT22;38667;42.872;74.622;2023-02-17T01:30:09;2.30;87.30
52799;DHT22;38667;42.872;74.622;2023-02-17T01:32:36;2.30;87.30
52799;DHT22;38667;42.872;74.622;2023-02-17T01:35:02;2.20;87.50
52799;DHT22;38667;42.872;74.622;2023-02-17T01:37:31;2.20;88.30
52799;DHT22;38667;42.872;74.622;2023-02-17T01:39:59;2.20;89.10
52799;DHT22;38667;42.872;74.622;2023-02-17T01:42:25;2.20;89.30
52799;DHT22;38667;42.872;74.622;2023-02-17T01:47:57;2.40;89.30
52799;DHT22;38667;42.872;74.622;2023-02-17T01:50:29;2.40;88.70
52799;DHT22;38667;42.872;74.622;2023-02-17T01:52:57;2.60;88.20
52799;DHT22;38667;42.872;74.622;2023-02-17T01:55:28;2.60;87.10
52799;DHT22;38667;42.872;74.622;2023-02-17T01:57:58;2.70;85.30
52799;DHT22;38667;42.872;74.622;2023-02-17T02:00:28;2.80;84.20
52799;DHT22;38667;42.872;74.622;2023-02-17T02:02:56;2.90;84.70
52799;DHT22;38667;42.872;74.622;2023-02-17T02:05:23;3.00;84.60
52799;DHT22;38667;42.872;74.622;2023-02-17T02:07:49;2.90;84.60
52799;DHT22;38667;42.872;74.622;2023-02-17T02:10:18;3.00;85.00
52799;DHT22;38667;42.872;74.622;2023-02-17T02:12:46;3.00;84.30
52799;DHT22;38667;42.872;74.622;2023-02-17T02:15:15;3.10;84.20
52799;DHT22;38667;42.872;74.622;2023-02-17T02:17:56;3.20;83.80
52799;DHT22;38667;42.872;74.622;2023-02-17T02:20:48;3.30;82.90
52799;DHT22;38667;42.872;74.622;2023-02-17T02:32:42;4.00;78.20
52799;DHT22;38667;42.872;74.622;2023-02-17T02:35:17;4.20;77.70
52799;DHT22;38667;42.872;74.622;2023-02-17T02:37:49;4.20;78.20
52799;DHT22;38667;42.872;74.622;2023-02-17T02:40:21;4.20;78.30
52799;DHT22;38667;42.872;74.622;2023-02-17T02:42:49;4.30;78.10
52799;DHT22;38667;42.872;74.622;2023-02-17T02:45:17;4.50;77.20
52799;DHT22;38667;42.872;74.622;2023-02-17T02:47:47;4.70;76.80
52799;DHT22;38667;42.872;74.622;2023-02-17T02:50:16;4.80;75.70
52799;DHT22;38667;42.872;74.622;2023-02-17T02:52:51;4.90;75.20
52799;DHT22;38667;42.872;74.622;2023-02-17T02:55:31;5.00;75.50
52799;DHT22;38667;42.872;74.622;2023-02-17T02:58:06;4.90;76.30
52799;DHT22;38667;42.872;74.622;2023-02-17T03:00:40;4.90;77.00
52799;DHT22;38667;42.872;74.622;2023-02-17T03:03:17;4.90;76.60
52799;DHT22;38667;42.872;74.622;2023-02-17T03:05:51;5.00;75.70
52799;DHT22;38667;42.872;74.622;2023-02-17T03:08:23;5.10;75.60
52799;DHT22;38667;42.872;74.622;2023-02-17T03:10:53;5.10;75.90
52799;DHT22;38667;42.872;74.622;2023-02-17T03:13:20;5.30;76.30
52799;DHT22;38667;42.872;74.622;2023-02-17T03:15:47;5.40;74.90
52799;DHT22;38667;42.872;74.622;2023-02-17T03:18:15;5.40;74.50
52799;DHT22;38667;42.872;74.622;2023-02-17T03:20:44;5.30;74.40
52799;DHT22;38667;42.872;74.622;2023-02-17T03:23:13;5.10;75.20
52799;DHT22;38667;42.872;74.622;2023-02-17T03:25:39;5.00;76.00
52799;DHT22;38667;42.872;74.622;2023-02-17T03:28:06;4.90;76.60
52799;DHT22;38667;42.872;74.622;2023-02-17T03:30:32;4.90;76.90
52799;DHT22;38667;42.872;74.622;2023-02-17T03:32:58;4.80;76.90
52799;DHT22;38667;42.872;74.622;2023-02-17T03:35:26;4.80;77.30
52799;DHT22;38667;42.872;74.622;2023-02-17T03:37:52;4.90;77.10
52799;DHT22;38667;42.872;74.622;2023-02-17T03:40:19;4.90;77.80
52799;DHT22;38667;42.872;74.622;2023-02-17T03:42:45;5.00;78.20
52799;DHT22;38667;42.872;74.622;2023-02-17T03:45:11;5.10;77.20
52799;DHT22;38667;42.872;74.622;2023-02-17T03:47:38;5.30;76.90
52799;DHT22;38667;42.872;74.622;2023-02-17T03:50:05;5.50;75.10
52799;DHT22;38667;42.872;74.622;2023-02-17T03:52:33;5.60;75.40
52799;DHT22;38667;42.872;74.622;2023-02-17T03:54:59;5.70;73.70
52799;DHT22;38667;42.872;74.622;2023-02-17T03:57:26;5.90;73.60
52799;DHT22;38667;42.872;74.622;2023-02-17T03:59:52;6.10;72.80
52799;DHT22;38667;42.872;74.622;2023-02-17T04:02:18;6.20;72.70
52799;DHT22;38667;42.872;74.622;2023-02-17T04:04:45;6.30;71.80
52799;DHT22;38667;42.872;74.622;2023-02-17T04:07:11;6.40;70.40
52799;DHT22;38667;42.872;74.622;2023-02-17T04:09:39;6.60;68.10
52799;DHT22;38667;42.872;74.622;2023-02-17T04:12:05;6.70;69.00
52799;DHT22;38667;42.872;74.622;2023-02-17T04:14:31;6.70;68.50
52799;DHT22;38667;42.872;74.622;2023-02-17T04:17:07;6.90;68.00
52799;DHT22;38667;42.872;74.622;2023-02-17T04:19:33;7.00;67.90
52799;DHT22;38667;42.872;74.622;2023-02-17T04:21:59;7.10;65.80
52799;DHT22;38667;42.872;74.622;2023-02-17T04:24:26;7.20;66.50
52799;DHT22;38667;42.872;74.622;2023-02-17T04:26:53;7.30;66.40
52799;DHT22;38667;42.872;74.622;2023-02-17T04:29:20;7.30;66.90
52799;DHT22;38667;42.872;74.622;2023-02-17T04:31:46;7.40;67.60
52799;DHT22;38667;42.872;74.622;2023-02-17T04:34:12;7.40;66.50
52799;DHT22;38667;42.872;74.622;2023-02-17T04:36:39;7.40;66.80
52799;DHT22;38667;42.872;74.622;2023-02-17T04:39:05;7.40;66.80
52799;DHT22;38667;42.872;74.622;2023-02-17T04:41:31;7.40;66.80
52799;DHT22;38667;42.872;74.622;2023-02-17T04:43:59;7.40;67.30
52799;DHT22;38667;42.872;74.622;2023-02-17T04:46:25;7.40;67.00
52799;DHT22;38667;42.872;74.622;2023-02-17T04:48:52;7.40;67.10
52799;DHT22;38667;42.872;74.622;2023-02-17T04:51:18;7.40;67.30
52799;DHT22;38667;42.872;74.622;2023-02-17T04:53:44;7.40;67.60
52799;DHT22;38667;42.872;74.622;2023-02-17T04:56:11;7.40;67.40
52799;DHT22;38667;42.872;74.622;2023-02-17T04:58:37;7.50;66.90
52799;DHT22;38667;42.872;74.622;2023-02-17T05:01:05;7.50;67.40
52799;DHT22;38667;42.872;74.622;2023-02-17T05:03:31;7.50;67.60
52799;DHT22;38667;42.872;74.622;2023-02-17T05:05:58;7.60;67.00
52799;DHT22;38667;42.872;74.622;2023-02-17T05:08:24;7.60;67.40
52799;DHT22;38667;42.872;74.622;2023-02-17T05:10:50;7.70;67.50
52799;DHT22;38667;42.872;74.622;2023-02-17T05:13:17;7.80;66.20
52799;DHT22;38667;42.872;74.622;2023-02-17T05:15:44;7.90;66.90
52799;DHT22;38667;42.872;74.622;2023-02-17T05:18:12;8.00;65.10
52799;DHT22;38667;42.872;74.622;2023-02-17T05:20:39;8.00;64.40
52799;DHT22;38667;42.872;74.622;2023-02-17T05:23:05;8.10;64.30
52799;DHT22;38667;42.872;74.622;2023-02-17T05:25:32;8.20;64.30
52799;DHT22;38667;42.872;74.622;2023-02-17T05:27:58;8.30;63.60
52799;DHT22;38667;42.872;74.622;2023-02-17T05:30:25;8.40;61.70
52799;DHT22;38667;42.872;74.622;2023-02-17T05:32:51;8.50;61.40
52799;DHT22;38667;42.872;74.622;2023-02-17T05:35:20;8.50;61.30
52799;DHT22;38667;42.872;74.622;2023-02-17T05:37:46;8.50;61.10
52799;DHT22;38667;42.872;74.622;2023-02-17T05:40:13;8.60;60.60
52799;DHT22;38667;42.872;74.622;2023-02-17T05:42:39;8.60;61.00
52799;DHT22;38667;42.872;74.622;2023-02-17T05:45:06;8.70;61.20
52799;DHT22;38667;42.872;74.622;2023-02-17T05:47:32;8.80;60.80
52799;DHT22;38667;42.872;74.622;2023-02-17T05:49:58;8.90;59.50
52799;DHT22;38667;42.872;74.622;2023-02-17T05:52:26;9.00;60.30
52799;DHT22;38667;42.872;74.622;2023-02-17T05:54:53;9.30;60.80
52799;DHT22;38667;42.872;74.622;2023-02-17T05:57:19;9.40;59.50
52799;DHT22;38667;42.872;74.622;2023-02-17T05:59:45;9.40;58.80
52799;DHT22;38667;42.872;74.622;2023-02-17T06:02:12;9.50;58.70
52799;DHT22;38667;42.872;74.622;2023-02-17T06:04:38;9.50;57.90
52799;DHT22;38667;42.872;74.622;2023-02-17T06:07:04;9.50;58.80
52799;DHT22;38667;42.872;74.622;2023-02-17T06:09:32;9.40;59.00
52799;DHT22;38667;42.872;74.622;2023-02-17T06:11:58;9.30;59.40
52799;DHT22;38667;42.872;74.622;2023-02-17T06:14:25;9.30;59.20
52799;DHT22;38667;42.872;74.622;2023-02-17T06:16:51;9.40;58.90
52799;DHT22;38667;42.872;74.622;2023-02-17T06:19:17;9.50;58.90
52799;DHT22;38667;42.872;74.622;2023-02-17T06:21:44;9.50;60.00
52799;DHT22;38667;42.872;74.622;2023-02-17T06:24:10;9.60;59.10
52799;DHT22;38667;42.872;74.622;2023-02-17T06:26:38;9.90;59.80
52799;DHT22;38667;42.872;74.622;2023-02-17T06:29:05;10.60;57.80
52799;DHT22;38667;42.872;74.622;2023-02-17T06:31:31;11.00;56.00
52799;DHT22;38667;42.872;74.622;2023-02-17T06:33:58;11.30;55.30
52799;DHT22;38667;42.872;74.622;2023-02-17T06:36:24;11.40;54.20
52799;DHT22;38667;42.872;74.622;2023-02-17T06:38:50;11.40;53.60
52799;DHT22;38667;42.872;74.622;2023-02-17T06:41:17;11.40;54.70
52799;DHT22;38667;42.872;74.622;2023-02-17T06:43:45;11.40;54.90
52799;DHT22;38667;42.872;74.622;2023-02-17T06:46:11;11.40;54.60
52799;DHT22;38667;42.872;74.622;2023-02-17T06:48:37;11.50;54.80
52799;DHT22;38667;42.872;74.622;2023-02-17T06:51:04;11.50;55.10
52799;DHT22;38667;42.872;74.622;2023-02-17T06:53:30;11.30;54.90
52799;DHT22;38667;42.872;74.622;2023-02-17T06:55:57;11.10;55.30
52799;DHT22;38667;42.872;74.622;2023-02-17T06:58:23;11.10;55.20
52799;DHT22;38667;42.872;74.622;2023-02-17T07:00:51;11.30;55.80
52799;DHT22;38667;42.872;74.622;2023-02-17T07:03:17;11.40;55.90
52799;DHT22;38667;42.872;74.622;2023-02-17T07:05:44;11.50;56.50
52799;DHT22;38667;42.872;74.622;2023-02-17T07:08:10;11.70;56.50
52799;DHT22;38667;42.872;74.622;2023-02-17T07:10:37;11.40;55.80
52799;DHT22;38667;42.872;74.622;2023-02-17T07:13:03;11.10;56.80
52799;DHT22;38667;42.872;74.622;2023-02-17T07:15:29;10.70;58.00
52799;DHT22;38667;42.872;74.622;2023-02-17T07:17:57;10.50;59.00
52799;DHT22;38667;42.872;74.622;2023-02-17T07:20:24;10.50;59.20
52799;DHT22;38667;42.872;74.622;2023-02-17T07:22:50;10.80;59.70
52799;DHT22;38667;42.872;74.622;2023-02-17T07:25:17;10.80;59.20
52799;DHT22;38667;42.872;74.622;2023-02-17T07:27:43;10.80;59.40
52799;DHT22;38667;42.872;74.622;2023-02-17T07:30:10;10.70;60.30
52799;DHT22;38667;42.872;74.622;2023-02-17T07:32:36;10.80;59.90
52799;DHT22;38667;42.872;74.622;2023-02-17T07:35:05;10.70;59.00
52799;DHT22;38667;42.872;74.622;2023-02-17T07:37:31;10.70;59.00
52799;DHT22;38667;42.872;74.622;2023-02-17T07:39:57;10.60;58.70
52799;DHT22;38667;42.872;74.622;2023-02-17T07:42:25;10.60;58.90
52799;DHT22;38667;42.872;74.622;2023-02-17T07:44:52;10.60;59.00
52799;DHT22;38667;42.872;74.622;2023-02-17T07:47:18;10.70;59.00
52799;DHT22;38667;42.872;74.622;2023-02-17T07:49:44;10.70;58.20
52799;DHT22;38667;42.872;74.622;2023-02-17T07:52:12;10.60;58.50
52799;DHT22;38667;42.872;74.622;2023-02-17T07:54:41;10.50;58.60
52799;DHT22;38667;42.872;74.622;2023-02-17T07:57:07;10.40;59.00
52799;DHT22;38667;42.872;74.622;2023-02-17T07:59:33;10.30;59.50
52799;DHT22;38667;42.872;74.622;2023-02-17T08:02:00;10.20;59.30
52799;DHT22;38667;42.872;74.622;2023-02-17T08:04:26;10.20;59.40
52799;DHT22;38667;42.872;74.622;2023-02-17T08:06:52;10.20;59.00
52799;DHT22;38667;42.872;74.622;2023-02-17T08:09:20;10.40;58.60
52799;DHT22;38667;42.872;74.622;2023-02-17T08:11:46;10.50;58.90
52799;DHT22;38667;42.872;74.622;2023-02-17T08:14:13;10.50;58.90
52799;DHT22;38667;42.872;74.622;2023-02-17T08:16:39;10.40;58.30
52799;DHT22;38667;42.872;74.622;2023-02-17T08:19:06;10.40;58.50
52799;DHT22;38667;42.872;74.622;2023-02-17T08:21:32;10.60;58.50
52799;DHT22;38667;42.872;74.622;2023-02-17T08:23:58;10.70;57.80
52799;DHT22;38667;42.872;74.622;2023-02-17T08:26:27;10.60;57.20
52799;DHT22;38667;42.872;74.622;2023-02-17T08:28:54;10.50;58.10
52799;DHT22;38667;42.872;74.622;2023-02-17T08:31:23;10.40;58.40
52799;DHT22;38667;42.872;74.622;2023-02-17T08:33:49;10.40;58.90
52799;DHT22;38667;42.872;74.622;2023-02-17T08:36:16;10.40;59.10
52799;DHT22;38667;42.872;74.622;2023-02-17T08:38:43;10.40;59.00
52799;DHT22;38667;42.872;74.622;2023-02-17T08:41:13;10.90;58.50
52799;DHT22;38667;42.872;74.622;2023-02-17T08:43:41;11.40;57.10
52799;DHT22;38667;42.872;74.622;2023-02-17T08:46:08;12.00;54.90
52799;DHT22;38667;42.872;74.622;2023-02-17T08:48:34;12.00;55.00
52799;DHT22;38667;42.872;74.622;2023-02-17T08:51:01;11.80;55.20
52799;DHT22;38667;42.872;74.622;2023-02-17T08:53:27;11.50;55.40
52799;DHT22;38667;42.872;74.622;2023-02-17T08:55:53;11.30;55.50
52799;DHT22;38667;42.872;74.622;2023-02-17T08:58:20;11.40;55.70
52799;DHT22;38667;42.872;74.622;2023-02-17T09:00:48;11.60;55.40
52799;DHT22;38667;42.872;74.622;2023-02-17T09:03:14;11.70;55.10
52799;DHT22;38667;42.872;74.622;2023-02-17T09:05:40;11.70;54.40
52799;DHT22;38667;42.872;74.622;2023-02-17T09:08:07;11.60;54.80
52799;DHT22;38667;42.872;74.622;2023-02-17T09:10:33;11.60;55.00
52799;DHT22;38667;42.872;74.622;2023-02-17T09:13:00;11.50;55.30
52799;DHT22;38667;42.872;74.622;2023-02-17T09:15:26;11.40;55.20
52799;DHT22;38667;42.872;74.622;2023-02-17T09:17:54;11.20;56.10
52799;DHT22;38667;42.872;74.622;2023-02-17T09:20:20;11.20;56.30
52799;DHT22;38667;42.872;74.622;2023-02-17T09:22:47;11.10;56.30
52799;DHT22;38667;42.872;74.622;2023-02-17T09:25:13;11.00;56.20
52799;DHT22;38667;42.872;74.622;2023-02-17T09:27:39;11.00;56.50
52799;DHT22;38667;42.872;74.622;2023-02-17T09:30:07;10.90;57.00
52799;DHT22;38667;42.872;74.622;2023-02-17T09:32:33;10.90;56.60
52799;DHT22;38667;42.872;74.622;2023-02-17T09:35:01;10.80;57.20
52799;DHT22;38667;42.872;74.622;2023-02-17T09:37:27;10.80;57.70
52799;DHT22;38667;42.872;74.622;2023-02-17T09:39:53;10.80;57.40
52799;DHT22;38667;42.872;74.622;2023-02-17T09:42:22;10.90;57.50
52799;DHT22;38667;42.872;74.622;2023-02-17T09:44:51;10.90;57.10
52799;DHT22;38667;42.872;74.622;2023-02-17T09:47:23;11.10;57.70
52799;DHT22;38667;42.872;74.622;2023-02-17T09:49:54;11.20;57.30
52799;DHT22;38667;42.872;74.622;2023-02-17T09:52:28;11.40;56.40
52799;DHT22;38667;42.872;74.622;2023-02-17T09:55:03;11.70;55.70
52799;DHT22;38667;42.872;74.622;2023-02-17T09:57:33;11.50;55.80
52799;DHT22;38667;42.872;74.622;2023-02-17T10:00:03;11.30;56.30
52799;DHT22;38667;42.872;74.622;2023-02-17T10:02:37;11.10;56.40
52799;DHT22;38667;42.872;74.622;2023-02-17T10:05:06;11.00;56.70
52799;DHT22;38667;42.872;74.622;2023-02-17T10:07:40;10.90;57.70
52799;DHT22;38667;42.872;74.622;2023-02-17T10:10:10;10.90;57.60
52799;DHT22;38667;42.872;74.622;2023-02-17T10:12:39;10.80;57.80
52799;DHT22;38667;42.872;74.622;2023-02-17T10:15:09;10.70;57.50
52799;DHT22;38667;42.872;74.622;2023-02-17T10:17:43;10.70;58.20
52799;DHT22;38667;42.872;74.622;2023-02-17T10:20:13;10.60;58.50
52799;DHT22;38667;42.872;74.622;2023-02-17T10:22:45;10.60;58.50
52799;DHT22;38667;42.872;74.622;2023-02-17T10:25:16;10.50;58.80
52799;DHT22;38667;42.872;74.622;2023-02-17T10:27:47;10.60;58.90
52799;DHT22;38667;42.872;74.622;2023-02-17T10:30:25;10.70;58.60
52799;DHT22;38667;42.872;74.622;2023-02-17T10:32:59;10.90;58.70
52799;DHT22;38667;42.872;74.622;2023-02-17T10:35:37;10.90;58.00
52799;DHT22;38667;42.872;74.622;2023-02-17T10:38:18;10.80;58.10
52799;DHT22;38667;42.872;74.622;2023-02-17T10:40:50;10.70;58.80
52799;DHT22;38667;42.872;74.622;2023-02-17T10:43:21;10.60;59.10
52799;DHT22;38667;42.872;74.622;2023-02-17T10:45:49;10.60;60.10
52799;DHT22;38667;42.872;74.622;2023-02-17T10:48:19;10.50;59.60
52799;DHT22;38667;42.872;74.622;2023-02-17T10:50:47;10.40;59.30
52799;DHT22;38667;42.872;74.622;2023-02-17T10:53:17;10.30;59.40
52799;DHT22;38667;42.872;74.622;2023-02-17T10:55:53;10.20;59.40
52799;DHT22;38667;42.872;74.622;2023-02-17T10:58:27;10.10;59.80
52799;DHT22;38667;42.872;74.622;2023-02-17T11:00:55;10.10;60.10
52799;DHT22;38667;42.872;74.622;2023-02-17T11:03:23;10.10;60.60
52799;DHT22;38667;42.872;74.622;2023-02-17T11:05:54;10.20;60.80
52799;DHT22;38667;42.872;74.622;2023-02-17T11:08:31;10.40;60.20
52799;DHT22;38667;42.872;74.622;2023-02-17T11:11:00;10.50;58.90
52799;DHT22;38667;42.872;74.622;2023-02-17T11:13:34;10.60;58.90
52799;DHT22;38667;42.872;74.622;2023-02-17T11:16:01;10.70;58.70
52799;DHT22;38667;42.872;74.622;2023-02-17T11:18:32;10.70;58.70
52799;DHT22;38667;42.872;74.622;2023-02-17T11:21:04;10.60;59.10
52799;DHT22;38667;42.872;74.622;2023-02-17T11:23:33;10.40;60.00
52799;DHT22;38667;42.872;74.622;2023-02-17T11:26:06;10.30;60.30
52799;DHT22;38667;42.872;74.622;2023-02-17T11:28:34;10.20;60.30
52799;DHT22;38667;42.872;74.622;2023-02-17T11:31:00;10.20;60.50
52799;DHT22;38667;42.872;74.622;2023-02-17T11:33:32;10.10;61.00
52799;DHT22;38667;42.872;74.622;2023-02-17T11:35:59;10.10;61.10
52799;DHT22;38667;42.872;74.622;2023-02-17T11:38:27;10.10;61.40
52799;DHT22;38667;42.872;74.622;2023-02-17T11:40:57;10.00;60.60
52799;DHT22;38667;42.872;74.622;2023-02-17T11:43:24;10.10;60.70
52799;DHT22;38667;42.872;74.622;2023-02-17T11:45:59;10.20;60.60
52799;DHT22;38667;42.872;74.622;2023-02-17T11:48:42;10.20;60.80
52799;DHT22;38667;42.872;74.622;2023-02-17T11:51:14;10.10;60.50
52799;DHT22;38667;42.872;74.622;2023-02-17T11:53:51;10.10;60.10
52799;DHT22;38667;42.872;74.622;2023-02-17T11:56:22;10.00;59.60
52799;DHT22;38667;42.872;74.622;2023-02-17T11:59:06;9.90;59.80
52799;DHT22;38667;42.872;74.622;2023-02-17T12:01:55;9.90;59.80
52799;DHT22;38667;42.872;74.622;2023-02-17T12:04:25;9.80;59.30
52799;DHT22;38667;42.872;74.622;2023-02-17T12:09:47;9.70;60.50
52799;DHT22;38667;42.872;74.622;2023-02-17T12:12:23;9.60;60.80
52799;DHT22;38667;42.872;74.622;2023-02-17T12:15:04;9.50;61.90
52799;DHT22;38667;42.872;74.622;2023-02-17T12:17:41;9.40;62.80
52799;DHT22;38667;42.872;74.622;2023-02-17T12:20:27;9.30;63.50
52799;DHT22;38667;42.872;74.622;2023-02-17T12:23:02;9.30;64.90
52799;DHT22;38667;42.872;74.622;2023-02-17T12:25:33;9.20;65.10
52799;DHT22;38667;42.872;74.622;2023-02-17T12:28:30;9.10;65.90
52799;DHT22;38667;42.872;74.622;2023-02-17T12:31:04;9.10;66.60
52799;DHT22;38667;42.872;74.622;2023-02-17T12:33:46;9.00;66.60
52799;DHT22;38667;42.872;74.622;2023-02-17T12:36:17;9.00;66.80
52799;DHT22;38667;42.872;74.622;2023-02-17T12:38:48;9.00;67.80
52799;DHT22;38667;42.872;74.622;2023-02-17T12:41:18;8.90;68.40
52799;DHT22;38667;42.872;74.622;2023-02-17T12:43:50;8.80;69.00
52799;DHT22;38667;42.872;74.622;2023-02-17T12:46:23;8.80;69.40
52799;DHT22;38667;42.872;74.622;2023-02-17T12:48:52;8.80;69.70
52799;DHT22;38667;42.872;74.622;2023-02-17T12:51:23;8.80;69.70
52799;DHT22;38667;42.872;74.622;2023-02-17T12:53:54;8.80;69.40
52799;DHT22;38667;42.872;74.622;2023-02-17T12:56:51;8.80;69.30
52799;DHT22;38667;42.872;74.622;2023-02-17T12:59:25;8.80;69.10
52799;DHT22;38667;42.872;74.622;2023-02-17T13:01:59;8.80;69.00
52799;DHT22;38667;42.872;74.622;2023-02-17T13:04:28;8.70;69.20
52799;DHT22;38667;42.872;74.622;2023-02-17T13:07:05;8.70;68.80
52799;DHT22;38667;42.872;74.622;2023-02-17T13:09:35;8.70;68.70
52799;DHT22;38667;42.872;74.622;2023-02-17T13:12:10;8.60;68.20
52799;DHT22;38667;42.872;74.622;2023-02-17T13:14:44;8.60;68.30
52799;DHT22;38667;42.872;74.622;2023-02-17T13:17:25;8.60;68.10
52799;DHT22;38667;42.872;74.622;2023-02-17T13:20:06;8.60;67.60
52799;DHT22;38667;42.872;74.622;2023-02-17T13:22:33;8.50;67.30
52799;DHT22;38667;42.872;74.622;2023-02-17T13:24:59;8.50;67.10
52799;DHT22;38667;42.872;74.622;2023-02-17T13:27:32;8.40;67.00
52799;DHT22;38667;42.872;74.622;2023-02-17T13:30:02;8.40;67.30
52799;DHT22;38667;42.872;74.622;2023-02-17T13:32:31;8.40;67.10
52799;DHT22;38667;42.872;74.622;2023-02-17T13:35:00;8.40;67.20
52799;DHT22;38667;42.872;74.622;2023-02-17T13:37:39;8.40;67.00
52799;DHT22;38667;42.872;74.622;2023-02-17T13:40:35;8.40;67.10
52799;DHT22;38667;42.872;74.622;2023-02-17T13:43:13;8.30;67.60
52799;DHT22;38667;42.872;74.622;2023-02-17T13:45:43;8.30;68.00
52799;DHT22;38667;42.872;74.622;2023-02-17T13:48:14;8.30;68.30
52799;DHT22;38667;42.872;74.622;2023-02-17T13:50:44;8.30;68.40
52799;DHT22;38667;42.872;74.622;2023-02-17T13:53:22;8.20;68.30
52799;DHT22;38667;42.872;74.622;2023-02-17T13:55:48;8.20;68.50
52799;DHT22;38667;42.872;74.622;2023-02-17T13:58:21;8.20;69.00
52799;DHT22;38667;42.872;74.622;2023-02-17T14:00:49;8.20;69.30
52799;DHT22;38667;42.872;74.622;2023-02-17T14:03:20;8.10;69.60
52799;DHT22;38667;42.872;74.622;2023-02-17T14:05:48;8.10;70.10
52799;DHT22;38667;42.872;74.622;2023-02-17T14:08:18;8.00;70.20
52799;DHT22;38667;42.872;74.622;2023-02-17T14:10:46;8.00;70.90
52799;DHT22;38667;42.872;74.622;2023-02-17T14:13:12;8.00;71.00
52799;DHT22;38667;42.872;74.622;2023-02-17T14:15:51;8.00;71.20
52799;DHT22;38667;42.872;74.622;2023-02-17T14:18:28;8.00;71.50
52799;DHT22;38667;42.872;74.622;2023-02-17T14:21:00;7.90;71.80
52799;DHT22;38667;42.872;74.622;2023-02-17T14:23:26;7.90;71.60
52799;DHT22;38667;42.872;74.622;2023-02-17T14:25:52;7.90;72.10
52799;DHT22;38667;42.872;74.622;2023-02-17T14:28:20;7.80;73.20
52799;DHT22;38667;42.872;74.622;2023-02-17T14:30:46;7.80;74.10
52799;DHT22;38667;42.872;74.622;2023-02-17T14:33:21;7.80;75.50
52799;DHT22;38667;42.872;74.622;2023-02-17T14:35:53;7.80;75.80
52799;DHT22;38667;42.872;74.622;2023-02-17T14:38:22;7.70;75.90
52799;DHT22;38667;42.872;74.622;2023-02-17T14:40:48;7.70;76.70
52799;DHT22;38667;42.872;74.622;2023-02-17T14:43:15;7.60;77.80
52799;DHT22;38667;42.872;74.622;2023-02-17T14:45:41;7.60;78.90
52799;DHT22;38667;42.872;74.622;2023-02-17T14:48:07;7.50;79.30
52799;DHT22;38667;42.872;74.622;2023-02-17T14:50:35;7.50;80.40
52799;DHT22;38667;42.872;74.622;2023-02-17T14:53:02;7.40;80.80
52799;DHT22;38667;42.872;74.622;2023-02-17T14:55:31;7.30;82.70
52799;DHT22;38667;42.872;74.622;2023-02-17T14:58:00;7.10;84.40
52799;DHT22;38667;42.872;74.622;2023-02-17T15:00:26;7.10;85.40
52799;DHT22;38667;42.872;74.622;2023-02-17T15:02:52;7.00;86.20
52799;DHT22;38667;42.872;74.622;2023-02-17T15:05:19;6.90;87.30
52799;DHT22;38667;42.872;74.622;2023-02-17T15:07:47;6.90;88.30
52799;DHT22;38667;42.872;74.622;2023-02-17T15:10:18;6.80;89.10
52799;DHT22;38667;42.872;74.622;2023-02-17T15:12:45;6.80;89.90
52799;DHT22;38667;42.872;74.622;2023-02-17T15:15:17;6.90;90.40
52799;DHT22;38667;42.872;74.622;2023-02-17T15:17:44;6.90;90.80
52799;DHT22;38667;42.872;74.622;2023-02-17T15:20:11;6.90;91.00
52799;DHT22;38667;42.872;74.622;2023-02-17T15:22:38;6.90;91.10
52799;DHT22;38667;42.872;74.622;2023-02-17T15:25:11;6.90;91.10
52799;DHT22;38667;42.872;74.622;2023-02-17T15:27:37;6.90;91.50
52799;DHT22;38667;42.872;74.622;2023-02-17T15:30:05;6.90;91.10
52799;DHT22;38667;42.872;74.622;2023-02-17T15:32:31;6.90;92.10
52799;DHT22;38667;42.872;74.622;2023-02-17T15:34:58;6.80;92.20
52799;DHT22;38667;42.872;74.622;2023-02-17T15:37:24;6.90;93.20
52799;DHT22;38667;42.872;74.622;2023-02-17T15:39:51;6.90;93.20
52799;DHT22;38667;42.872;74.622;2023-02-17T15:42:18;6.90;92.70
52799;DHT22;38667;42.872;74.622;2023-02-17T15:44:46;6.90;92.80
52799;DHT22;38667;42.872;74.622;2023-02-17T15:47:15;6.90;93.70
52799;DHT22;38667;42.872;74.622;2023-02-17T15:49:42;6.80;92.80
52799;DHT22;38667;42.872;74.622;2023-02-17T15:52:09;6.80;92.10